createdAt,value
2023-02-24T00:02:04.455Z,89.43
2023-02-24T00:04:39.908Z,87.38
2023-02-24T00:07:10.505Z,89.43
2023-02-24T00:09:39.285Z,94.70
2023-02-24T00:12:13.135Z,93.95
2023-02-24T00:14:43.328Z,92.20
2023-02-24T00:17:14.458Z,94.28
2023-02-24T00:19:42.436Z,98.10
2023-02-24T00:22:10.252Z,94.22
2023-02-24T00:24:37.840Z,98.32
2023-02-24T00:27:11.972Z,98.95
2023-02-24T00:29:41.825Z,95.50
2023-02-24T00:32:12.822Z,90.35
2023-02-24T00:34:43.540Z,87.82
2023-02-24T00:37:12.120Z,89.43
2023-02-24T00:39:41.884Z,91.00
2023-02-24T00:42:11.891Z,97.40
2023-02-24T00:44:43.844Z,106.90
2023-02-24T00:47:12.172Z,95.95
2023-02-24T00:49:44.391Z,92.55
2023-02-24T00:52:22.316Z,88.85
2023-02-24T00:54:50.771Z,90.90
2023-02-24T00:57:20.526Z,94.50
2023-02-24T00:59:48.136Z,95.18
2023-02-24T01:02:16.044Z,94.72
2023-02-24T01:04:46.084Z,89.88
2023-02-24T01:07:14.615Z,92.25
2023-02-24T01:09:44.252Z,88.72
2023-02-24T01:12:22.173Z,91.60
2023-02-24T01:14:52.628Z,88.45
2023-02-24T01:17:21.587Z,78.93
2023-02-24T01:19:50.411Z,80.95
2023-02-24T01:22:20.231Z,80.60
2023-02-24T01:24:48.881Z,76.82
2023-02-24T01:27:19.079Z,80.53
2023-02-24T01:29:48.083Z,81.38
2023-02-24T01:32:19.342Z,81.75
2023-02-24T01:34:47.914Z,81.20
2023-02-24T01:37:16.586Z,77.90
2023-02-24T01:39:45.395Z,78.53
2023-02-24T01:42:19.824Z,80.20
2023-02-24T01:44:48.020Z,81.97
2023-02-24T01:47:20.854Z,80.63
2023-02-24T01:49:52.773Z,82.03
2023-02-24T01:52:24.427Z,74.72
2023-02-24T01:54:58.118Z,78.85
2023-02-24T01:57:31.393Z,82.45
2023-02-24T02:00:02.080Z,77.53
2023-02-24T02:02:30.101Z,74.95
2023-02-24T02:05:03.922Z,79.55
2023-02-24T02:07:31.686Z,76.70
2023-02-24T02:10:04.213Z,80.72
2023-02-24T02:12:37.253Z,80.15
2023-02-24T02:15:06.669Z,79.75
2023-02-24T02:17:49.013Z,70.30
2023-02-24T02:20:22.401Z,78.63
2023-02-24T02:23:14.597Z,76.30
2023-02-24T02:26:11.480Z,75.43
2023-02-24T02:29:28.715Z,78.32
2023-02-24T02:34:27.664Z,81.65
2023-02-24T02:37:10.134Z,78.10
2023-02-24T02:39:58.892Z,74.18
2023-02-24T02:42:44.263Z,73.72
2023-02-24T02:45:47.818Z,76.82
2023-02-24T02:48:41.251Z,83.03
2023-02-24T02:51:11.861Z,79.00
2023-02-24T02:53:49.487Z,78.88
2023-02-24T02:56:22.212Z,86.72
2023-02-24T02:58:55.294Z,85.60
2023-02-24T03:01:28.547Z,83.65
2023-02-24T03:04:05.833Z,97.28
2023-02-24T03:06:53.256Z,95.00
2023-02-24T03:09:26.258Z,80.95
2023-02-24T03:12:02.214Z,90.45
2023-02-24T03:14:40.009Z,83.13
2023-02-24T03:17:21.672Z,84.30
2023-02-24T03:19:54.987Z,85.57
2023-02-24T03:22:41.177Z,84.75
2023-02-24T03:25:10.755Z,84.47
2023-02-24T03:27:49.421Z,79.95
2023-02-24T03:30:27.759Z,80.63
2023-02-24T03:33:06.713Z,83.35
2023-02-24T03:35:42.128Z,87.55
2023-02-24T03:38:11.816Z,84.53
2023-02-24T03:40:43.463Z,84.30
2023-02-24T03:43:22.294Z,89.18
2023-02-24T03:45:50.342Z,87.22
2023-02-24T03:48:17.886Z,81.65
2023-02-24T03:50:46.776Z,92.47
2023-02-24T03:53:53.375Z,88.55
2023-02-24T03:56:47.057Z,91.45
2023-02-24T03:59:52.957Z,80.53
2023-02-24T04:02:30.039Z,82.55
2023-02-24T04:05:20.736Z,90.18
2023-02-24T04:08:08.884Z,89.15
2023-02-24T04:10:52.636Z,93.22
2023-02-24T04:13:49.513Z,87.43
2023-02-24T04:16:28.995Z,96.35
2023-02-24T04:19:05.531Z,99.75
2023-02-24T04:21:38.589Z,94.38
2023-02-24T04:24:11.679Z,91.22
2023-02-24T04:26:42.962Z,95.82
2023-02-24T04:29:17.774Z,101.70
2023-02-24T04:31:50.297Z,89.20
2023-02-24T04:34:20.339Z,91.22
2023-02-24T04:36:50.064Z,94.72
2023-02-24T04:39:20.872Z,92.20
2023-02-24T04:41:52.337Z,89.28
2023-02-24T04:44:21.478Z,89.55
2023-02-24T04:46:50.496Z,87.50
2023-02-24T04:49:20.394Z,82.68
2023-02-24T04:51:47.834Z,96.97
2023-02-24T04:54:19.933Z,91.00
2023-02-24T04:56:50.894Z,79.85
2023-02-24T04:59:19.590Z,85.38
2023-02-24T05:01:51.721Z,84.10
2023-02-24T05:04:19.497Z,74.68
2023-02-24T05:06:47.471Z,81.65
2023-02-24T05:09:18.084Z,80.82
2023-02-24T05:11:49.165Z,79.22
2023-02-24T05:14:20.742Z,79.57
2023-02-24T05:16:49.306Z,84.93
2023-02-24T05:19:38.606Z,90.70
2023-02-24T05:22:07.303Z,83.65
2023-02-24T05:24:35.047Z,89.28
2023-02-24T05:27:03.947Z,84.90
2023-02-24T05:29:34.865Z,86.53
2023-02-24T05:32:04.689Z,78.57
2023-02-24T05:34:33.541Z,82.53
2023-02-24T05:37:04.506Z,82.43
2023-02-24T05:39:31.915Z,86.22
2023-02-24T05:42:06.210Z,75.80
2023-02-24T05:44:35.769Z,75.90
2023-02-24T05:47:05.603Z,85.88
2023-02-24T05:49:35.085Z,79.35
2023-02-24T05:52:10.216Z,75.22
2023-02-24T05:54:40.781Z,75.60
2023-02-24T05:57:12.064Z,76.40
2023-02-24T05:59:41.350Z,70.63
2023-02-24T06:02:13.020Z,71.00
2023-02-24T06:04:54.175Z,72.78
2023-02-24T06:07:28.426Z,68.65
2023-02-24T06:10:00.229Z,68.22
2023-02-24T06:12:33.965Z,73.38
2023-02-24T06:15:10.326Z,72.05
2023-02-24T06:17:37.814Z,74.47
2023-02-24T06:20:14.833Z,80.68
2023-02-24T06:22:42.671Z,74.82
2023-02-24T06:25:14.223Z,76.53
2023-02-24T06:27:43.217Z,74.40
2023-02-24T06:30:15.361Z,75.20
2023-02-24T06:32:43.196Z,79.47
2023-02-24T06:35:12.822Z,80.40
2023-02-24T06:37:41.198Z,81.22
2023-02-24T06:40:17.695Z,98.03
2023-02-24T06:42:52.326Z,94.18
2023-02-24T06:45:20.277Z,98.17
2023-02-24T06:47:48.944Z,95.43
2023-02-24T06:50:21.939Z,91.82
2023-02-24T06:52:50.732Z,86.45
2023-02-24T06:55:27.533Z,89.32
2023-02-24T06:58:04.481Z,89.70
2023-02-24T07:01:07.424Z,87.93
2023-02-24T07:04:37.752Z,85.93
2023-02-24T07:07:18.844Z,87.57
2023-02-24T07:10:02.894Z,84.78
2023-02-24T07:13:03.203Z,78.38
2023-02-24T07:15:37.660Z,85.85
2023-02-24T07:18:17.481Z,89.13
2023-02-24T07:20:48.503Z,82.55
2023-02-24T07:23:25.919Z,83.97
2023-02-24T07:26:04.631Z,84.63
2023-02-24T07:28:48.211Z,84.68
2023-02-24T07:31:27.308Z,82.35
2023-02-24T07:33:57.445Z,82.47
2023-02-24T07:36:30.157Z,82.00
2023-02-24T07:38:59.218Z,81.63
2023-02-24T07:41:26.919Z,84.30
2023-02-24T07:43:55.475Z,87.85
2023-02-24T07:46:25.800Z,82.30
2023-02-24T07:48:59.353Z,83.75
2023-02-24T07:51:28.252Z,84.43
2023-02-24T07:53:59.144Z,87.38
2023-02-24T07:56:29.346Z,83.10
2023-02-24T07:59:01.994Z,87.25
2023-02-24T08:01:39.229Z,82.45
2023-02-24T08:04:12.543Z,86.35
2023-02-24T08:06:47.864Z,88.15
2023-02-24T08:09:21.155Z,90.18
2023-02-24T08:11:56.816Z,92.65
2023-02-24T08:14:27.454Z,86.60
2023-02-24T08:17:23.220Z,87.65
2023-02-24T08:20:10.166Z,92.18
2023-02-24T08:22:46.990Z,87.93
2023-02-24T08:29:12.467Z,85.55
2023-02-24T08:31:40.348Z,88.25
2023-02-24T08:37:48.544Z,91.05
2023-02-24T08:40:32.971Z,87.05
2023-02-24T08:43:25.548Z,88.85
2023-02-24T08:48:56.446Z,93.45
2023-02-24T08:51:35.086Z,95.57
2023-02-24T08:54:16.930Z,97.03
2023-02-24T08:56:49.286Z,94.05
2023-02-24T08:59:37.181Z,97.97
2023-02-24T09:02:18.875Z,92.28
2023-02-24T09:04:52.596Z,96.10
2023-02-24T09:07:35.638Z,96.28
2023-02-24T09:12:32.315Z,88.28
2023-02-24T09:15:04.701Z,95.70
2023-02-24T09:17:49.809Z,90.75
2023-02-24T09:20:44.933Z,86.82
2023-02-24T09:23:20.263Z,86.05
2023-02-24T09:28:29.279Z,87.05
2023-02-24T09:31:00.452Z,88.00
2023-02-24T09:33:38.849Z,86.18
2023-02-24T09:36:20.331Z,81.68
2023-02-24T09:38:59.384Z,90.07
2023-02-24T09:41:54.971Z,84.30
2023-02-24T09:44:44.371Z,83.40
2023-02-24T09:47:42.648Z,85.03
2023-02-24T09:50:14.219Z,94.50
2023-02-24T09:52:42.003Z,96.32
2023-02-24T09:55:25.200Z,92.93
2023-02-24T09:58:27.033Z,93.57
2023-02-24T10:01:34.375Z,88.95
2023-02-24T10:04:29.293Z,89.53
2023-02-24T10:07:03.115Z,91.22
2023-02-24T10:09:41.501Z,91.18
2023-02-24T10:12:24.080Z,81.03
2023-02-24T10:15:18.625Z,88.88
2023-02-24T10:17:55.583Z,82.00
2023-02-24T10:20:40.258Z,86.25
2023-02-24T10:23:29.638Z,78.28
2023-02-24T10:26:07.762Z,80.72
2023-02-24T10:28:46.367Z,79.43
2023-02-24T10:31:35.932Z,80.88
2023-02-24T10:34:09.951Z,80.45
2023-02-24T10:36:37.997Z,83.55
2023-02-24T10:39:17.365Z,87.10
2023-02-24T10:41:57.412Z,81.28
2023-02-24T10:44:36.473Z,89.07
2023-02-24T10:47:13.706Z,89.65
2023-02-24T10:49:57.498Z,85.35
2023-02-24T10:52:51.117Z,99.55
2023-02-24T10:55:50.340Z,98.18
2023-02-24T10:58:40.596Z,93.38
2023-02-24T11:01:41.064Z,84.82
2023-02-24T11:04:33.681Z,82.43
2023-02-24T11:07:13.388Z,79.95
2023-02-24T11:09:45.626Z,76.78
2023-02-24T11:12:43.630Z,80.13
2023-02-24T11:15:41.349Z,76.13
2023-02-24T11:18:18.436Z,80.68
2023-02-24T11:20:50.248Z,75.10
2023-02-24T11:23:25.969Z,74.05
2023-02-24T11:25:59.185Z,72.10
2023-02-24T11:28:59.609Z,70.60
2023-02-24T11:31:39.017Z,70.95
2023-02-24T11:34:20.644Z,77.68
2023-02-24T11:37:04.220Z,69.05
2023-02-24T11:39:53.598Z,71.50
2023-02-24T11:42:46.170Z,72.45
2023-02-24T11:45:25.239Z,69.05
2023-02-24T11:48:01.058Z,73.40
2023-02-24T11:50:46.553Z,70.15
2023-02-24T11:53:26.209Z,72.18
2023-02-24T11:56:05.301Z,74.55
2023-02-24T11:59:10.076Z,74.47
2023-02-24T12:02:00.233Z,75.53
2023-02-24T12:04:51.149Z,74.85
2023-02-24T12:07:29.387Z,67.85
2023-02-24T12:10:15.687Z,65.25
2023-02-24T12:13:05.716Z,69.85
2023-02-24T12:15:44.157Z,64.55
2023-02-24T12:18:27.212Z,62.75
2023-02-24T12:21:30.648Z,62.33
2023-02-24T12:23:59.113Z,60.75
2023-02-24T12:26:42.811Z,63.30
2023-02-24T12:29:16.173Z,56.90
2023-02-24T12:32:03.029Z,60.58
2023-02-24T12:34:30.466Z,59.55
2023-02-24T12:37:16.415Z,58.75
2023-02-24T12:42:29.055Z,59.88
2023-02-24T12:45:24.320Z,60.25
2023-02-24T12:48:14.353Z,59.63
2023-02-24T12:50:50.652Z,60.17
2023-02-24T12:53:38.014Z,56.17
2023-02-24T12:56:25.661Z,57.83
2023-02-24T12:59:00.122Z,57.30
2023-02-24T13:01:50.007Z,54.85
2023-02-24T13:04:54.394Z,56.22
2023-02-24T13:07:41.635Z,56.03
2023-02-24T13:10:14.777Z,57.20
2023-02-24T13:12:45.820Z,58.97
2023-02-24T13:15:25.776Z,60.13
2023-02-24T13:17:57.773Z,60.83
2023-02-24T13:20:36.897Z,61.58
2023-02-24T13:23:22.076Z,53.47
2023-02-24T13:25:55.534Z,58.50
2023-02-24T13:28:27.081Z,57.17
2023-02-24T13:31:05.906Z,54.72
2023-02-24T13:33:39.240Z,54.80
2023-02-24T13:36:15.589Z,53.95
2023-02-24T13:38:46.223Z,56.20
2023-02-24T13:41:22.924Z,53.67
2023-02-24T13:44:17.367Z,53.80
2023-02-24T13:47:03.451Z,54.40
2023-02-24T13:49:43.349Z,49.13
2023-02-24T13:52:42.910Z,51.17
2023-02-24T13:55:48.160Z,52.55
2023-02-24T13:58:33.710Z,48.22
2023-02-24T14:01:11.326Z,48.55
2023-02-24T14:04:35.197Z,50.15
2023-02-24T14:06:35.028Z,47.90
2023-02-24T14:09:04.948Z,46.97
2023-02-24T14:11:37.824Z,49.47
2023-02-24T14:14:05.769Z,47.47
2023-02-24T14:16:38.467Z,49.55
2023-02-24T14:19:14.526Z,50.83
2023-02-24T14:21:59.046Z,48.58
2023-02-24T14:24:27.987Z,49.67
2023-02-24T14:26:59.443Z,47.25
2023-02-24T14:29:43.145Z,48.83
2023-02-24T14:32:29.437Z,47.60
2023-02-24T14:37:30.725Z,46.95
2023-02-24T14:40:00.678Z,46.47
2023-02-24T14:42:29.345Z,46.65
2023-02-24T14:44:59.412Z,46.67
2023-02-24T14:47:28.953Z,45.33
2023-02-24T14:50:04.702Z,49.25
2023-02-24T14:52:49.957Z,45.67
2023-02-24T14:55:23.656Z,50.78
2023-02-24T14:58:01.878Z,47.10
2023-02-24T15:00:35.304Z,48.63
2023-02-24T15:03:25.341Z,45.40
2023-02-24T15:05:55.552Z,47.42
2023-02-24T15:08:43.430Z,50.08
2023-02-24T15:11:16.753Z,51.47
2023-02-24T15:13:51.401Z,49.20
2023-02-24T15:16:25.854Z,50.45
2023-02-24T15:18:56.105Z,49.47
2023-02-24T15:21:38.776Z,49.67
2023-02-24T15:24:34.642Z,56.85
2023-02-24T15:27:31.231Z,49.10
2023-02-24T15:30:21.334Z,53.80
2023-02-24T15:32:48.908Z,47.03
2023-02-24T15:35:24.855Z,52.88
2023-02-24T15:37:54.872Z,50.58
2023-02-24T15:40:25.562Z,50.15
2023-02-24T15:42:59.092Z,46.08
2023-02-24T15:45:26.515Z,59.22
2023-02-24T15:47:57.188Z,51.65
2023-02-24T15:50:25.328Z,50.75
2023-02-24T15:52:52.838Z,57.10
2023-02-24T15:55:21.873Z,56.15
2023-02-24T15:57:58.472Z,45.90
2023-02-24T16:00:26.229Z,51.75
2023-02-24T16:02:53.828Z,51.03
2023-02-24T16:05:21.372Z,49.67
2023-02-24T16:07:49.718Z,52.45
2023-02-24T16:10:26.186Z,49.72
2023-02-24T16:13:00.318Z,44.92
2023-02-24T16:15:38.000Z,46.00
2023-02-24T16:18:14.206Z,49.20
2023-02-24T16:20:43.222Z,46.20
2023-02-24T16:23:11.017Z,44.35
2023-02-24T16:26:03.063Z,46.33
2023-02-24T16:28:41.239Z,46.35
2023-02-24T16:31:13.485Z,47.22
2023-02-24T16:33:54.107Z,47.88
2023-02-24T16:36:24.657Z,49.65
2023-02-24T16:38:55.327Z,48.58
2023-02-24T16:41:28.020Z,47.50
2023-02-24T16:43:58.895Z,49.50
2023-02-24T16:46:33.065Z,55.45
2023-02-24T16:49:03.778Z,53.80
2023-02-24T16:51:35.706Z,54.17
2023-02-24T16:54:03.712Z,53.15
2023-02-24T16:56:33.678Z,51.95
2023-02-24T16:59:04.561Z,52.92
2023-02-24T17:01:39.195Z,51.35
2023-02-24T17:04:28.338Z,47.72
2023-02-24T17:06:59.262Z,54.65
2023-02-24T17:09:38.233Z,58.03
2023-02-24T17:12:09.683Z,60.03
2023-02-24T17:14:37.282Z,55.50
2023-02-24T17:17:04.916Z,52.97
2023-02-24T17:19:32.420Z,59.00
2023-02-24T17:21:59.893Z,58.03
2023-02-24T17:24:28.648Z,58.90
2023-02-24T17:27:00.592Z,57.55
2023-02-24T17:29:28.152Z,52.92
2023-02-24T17:31:55.883Z,55.40
2023-02-24T17:34:24.326Z,50.70
2023-02-24T17:36:53.378Z,54.72
2023-02-24T17:39:20.885Z,51.88
2023-02-24T17:41:48.399Z,54.35
2023-02-24T17:44:16.008Z,54.20
2023-02-24T17:46:43.512Z,55.65
2023-02-24T17:49:11.020Z,56.28
2023-02-24T17:51:38.485Z,57.50
2023-02-24T17:54:06.604Z,56.72
2023-02-24T17:56:34.076Z,56.70
2023-02-24T17:59:01.621Z,58.42
2023-02-24T18:01:29.461Z,56.45
2023-02-24T18:04:00.010Z,54.83
2023-02-24T18:06:27.544Z,55.50
2023-02-24T18:08:55.160Z,56.15
2023-02-24T18:11:22.676Z,55.38
2023-02-24T18:13:52.710Z,59.90
2023-02-24T18:16:20.734Z,66.10
2023-02-24T18:18:48.528Z,66.05
2023-02-24T18:21:16.107Z,58.50
2023-02-24T18:23:43.565Z,54.80
2023-02-24T18:26:23.890Z,58.75
2023-02-24T18:28:55.591Z,58.50
2023-02-24T18:31:25.269Z,57.08
2023-02-24T18:33:56.446Z,60.20
2023-02-24T18:36:25.040Z,60.28
2023-02-24T18:38:53.334Z,61.47
2023-02-24T18:41:24.244Z,58.78
2023-02-24T18:44:45.277Z,62.13
2023-02-24T18:47:14.163Z,58.03
2023-02-24T18:49:42.151Z,61.83
2023-02-24T18:52:11.609Z,62.70
2023-02-24T18:54:39.453Z,60.88
2023-02-24T18:57:07.107Z,61.78
2023-02-24T18:59:34.612Z,62.17
2023-02-24T19:02:02.195Z,61.83
2023-02-24T19:04:29.705Z,61.15
2023-02-24T19:06:57.222Z,58.33
2023-02-24T19:09:24.761Z,61.65
2023-02-24T19:11:54.227Z,65.13
2023-02-24T19:14:22.768Z,65.68
2023-02-24T19:16:50.336Z,59.83
2023-02-24T19:19:17.956Z,58.88
2023-02-24T19:21:45.882Z,67.47
2023-02-24T19:24:14.161Z,61.35
2023-02-24T19:26:43.960Z,61.60
2023-02-24T19:29:12.382Z,61.45
2023-02-24T19:31:40.532Z,64.32
2023-02-24T19:34:12.067Z,64.10
2023-02-24T19:36:41.202Z,68.63
2023-02-24T19:39:10.955Z,66.85
2023-02-24T19:41:38.611Z,64.07
2023-02-24T19:44:06.192Z,72.53
2023-02-24T19:46:34.365Z,71.18
2023-02-24T19:49:02.327Z,68.32
2023-02-24T19:51:47.800Z,65.35
2023-02-24T19:56:44.283Z,66.63
2023-02-24T19:59:11.811Z,66.75
2023-02-24T20:01:39.470Z,61.88
2023-02-24T20:04:07.301Z,67.03
2023-02-24T20:06:40.327Z,67.07
2023-02-24T20:09:15.524Z,66.38
2023-02-24T20:11:45.178Z,67.07
2023-02-24T20:14:13.105Z,64.93
2023-02-24T20:16:42.090Z,63.78
2023-02-24T20:19:11.601Z,64.80
2023-02-24T20:21:42.149Z,65.88
2023-02-24T20:24:14.133Z,74.03
2023-02-24T20:31:15.667Z,67.80
2023-02-24T20:34:13.216Z,69.55
2023-02-24T20:43:39.189Z,69.45
2023-02-24T20:46:25.578Z,70.20
2023-02-24T20:49:00.898Z,70.43
2023-02-24T20:51:47.613Z,72.85
2023-02-24T20:54:16.559Z,68.72
2023-02-24T20:56:45.906Z,76.57
2023-02-24T20:59:18.764Z,69.85
2023-02-24T21:01:48.585Z,70.28
2023-02-24T21:04:19.883Z,67.18
2023-02-24T21:06:49.011Z,72.07
2023-02-24T21:09:16.975Z,72.63
2023-02-24T21:11:49.822Z,70.57
2023-02-24T21:14:23.099Z,67.45
2023-02-24T21:17:03.231Z,72.53
2023-02-24T21:19:38.284Z,70.70
2023-02-24T21:22:26.316Z,73.15
2023-02-24T21:25:01.427Z,71.82
2023-02-24T21:27:28.993Z,73.78
2023-02-24T21:29:56.768Z,74.53
2023-02-24T21:32:26.552Z,72.22
2023-02-24T21:34:54.351Z,69.68
2023-02-24T21:37:21.928Z,70.38
2023-02-24T21:39:54.722Z,74.82
2023-02-24T22:14:57.632Z,72.17
2023-02-24T22:18:07.422Z,75.28
2023-02-24T22:20:54.284Z,73.78
2023-02-24T22:27:20.506Z,72.28
2023-02-24T22:31:00.717Z,77.68
2023-02-24T22:34:01.547Z,75.97
2023-02-24T22:36:33.332Z,80.70
2023-02-24T22:39:02.078Z,79.35
2023-02-24T22:41:32.320Z,76.72
2023-02-24T22:44:02.829Z,75.68
2023-02-24T22:46:33.364Z,77.03
2023-02-24T22:49:01.413Z,79.00
2023-02-24T22:51:29.050Z,79.07
2023-02-24T22:53:56.802Z,77.13
2023-02-24T22:56:27.166Z,79.63
2023-02-24T22:58:56.649Z,80.00
2023-02-24T23:01:29.889Z,79.85
2023-02-24T23:04:02.225Z,83.43
2023-02-24T23:06:30.808Z,84.13
2023-02-24T23:08:59.982Z,88.47
2023-02-24T23:11:36.948Z,87.65
2023-02-24T23:14:10.013Z,82.88
2023-02-24T23:16:38.850Z,85.18
2023-02-24T23:19:13.058Z,82.35
2023-02-24T23:21:43.157Z,79.25
2023-02-24T23:24:12.580Z,84.80
2023-02-24T23:26:43.722Z,84.22
2023-02-24T23:29:13.919Z,84.97
2023-02-24T23:31:44.650Z,75.30
2023-02-24T23:34:13.209Z,79.05
2023-02-24T23:36:43.928Z,80.25
2023-02-24T23:39:14.097Z,75.50
2023-02-24T23:41:44.191Z,77.13
2023-02-24T23:44:12.607Z,74.85
2023-02-24T23:46:41.844Z,81.72
2023-02-24T23:49:09.776Z,78.63
2023-02-24T23:51:53.002Z,77.50
2023-02-24T23:54:20.657Z,77.55
2023-02-24T23:56:48.229Z,79.80
2023-02-24T23:59:16.087Z,81.43
